KHSB/HSB METAR and TAF weather

Enter ICAO airport designator
Station Type Date Time Source
KHSB METAR 2019/08/23 15:15 UTC NOAA

KHSB 231515Z AUTO 05006KT 10SM CLR 24/21 A3006 RMK AO2 T02350206


Station Type Date Time Source
KHSB Decoded METAR 2019/08/23 15:15 UTC NOAA

Station name not available
Aug 23, 2019 - 11:15 AM EDT / 2019.08.23 1515 UTC
Wind: from the NE (050 degrees) at 7 MPH (6 KT):0
Visibility: 10 mile(s):0
Sky conditions: clear
Temperature: 74.3 F (23.5 C)
Dew Point: 69.1 F (20.6 C)
Relative Humidity: 83%
Pressure (altimeter): 30.06 in. Hg (1017 hPa)
ob: KHSB 231515Z AUTO 05006KT 10SM CLR 24/21 A3006 RMK AO2 T02350206
cycle: 15

Station Type Date Time Source
KHSB TAF UTC NOAA

Error!

Example: see airport list